リュブリャナ の空港の天気 - METARとTAF

リュブリャナ空港 ( LJLJ / LJU ) - スロベニア リュブリャナ
飛行場実況気象(Metar)
観測時間10/24 11:00 CEST (10/24 09:00 UTC)
風向・風速東南東 2m/s
視程10km以上
天気現象
少しの雲 雲底高度 550m
全天の8割程度の雲 雲底高度 610m
気温15℃
湿度94%
気圧1017hPa
METARLJLJ 240900Z 11004KT 9999 FEW018TCU BKN020 15/14 Q1017 NOSIG
過去の天気等 Google飛行場航空写真 Wunderground天気予報

過去48時間のMETAR

飛行場予報(TAF)
発表時間: 10/24 07:00 CEST (10/24 05:00 UTC)
予報対象時間: 24日8時 CEST ~ 25日7時 CET
風向・風速西北西 3m/s
視程10km以上
全天の4割程度の雲 雲底高度 1070m
全天を覆う雲 雲底高度 1520m
24日8時 CEST ~ 25日1時 CEST に一時的に
天気現象しゅう雨
全天の8割程度の塔状積雲 雲底高度 910m
全天を覆う雲 雲底高度 1220m
24日8時 CEST ~ 24日20時 CEST に 確率 30% で一時的に
風向・風速不定 8m/s
視程5000m
天気現象雷雨
全天の8割程度の積乱雲 雲底高度 910m
全天を覆う雲 雲底高度 1070m
25日2時 CET ~ 25日4時 CET に一時的に
視程2500m
天気現象散在した霧 もや
全天の4割程度の雲 雲底高度 30m
25日4時 CET ~ 25日6時 CET に徐々に
視程400m
天気現象
全天を覆う雲 鉛直視程 30m
TAF LJLJ 240500Z 2406/2506 29005KT 9999 SCT035 OVC050
TEMPO 2406/2423 SHRA BKN030TCU OVC040
PROB30 TEMPO 2406/2418 VRB15KT 5000 TSRA BKN030CB OVC035
TEMPO 2501/2503 2500 BCFG BR SCT001
BECMG 2503/2505 0400 FG VV001